Terminal Aerodrome Forecast
Issued by NWS Denver/Boulder, CO

Home | Current Version | Previous Version | Text Only | Print | Product List | Glossary On
Versions: 1 2 3 4 5 6 7 8 9 10 11 12 13 14 15 16 17 18 19 20 21 22 23 24 25 26 27 28 29 30 31 32 33 34 35 36 37 38 39 40 41 42 43 44 45 46 47 48 49 50
000
FTUS45 KBOU 280753 AAA
TAFDEN
TAF AMD
KDEN 280753Z 2808/2912 28009KT P6SM FEW140 BKN220
     FM281100 24009KT P6SM BKN120 BKN180
     FM281700 29012KT P6SM BKN120 BKN180
     FM282000 30015G25KT P6SM BKN120 BKN180
     FM290100 01008KT P6SM BKN120 BKN180
     FM290300 04005KT P6SM SCT100 BKN150
     FM290600 06006KT P6SM SCT030 BKN050 OVC080
     FM290900 11007KT P6SM SCT015 OVC030=

USA.gov is the U.S. government's official web portal to all federal, state and local government web resources and services.